Time;durP1;ratioP1;P1;durP2;ratioP2;P2;SDS_P1;SDS_P2;PMS_P1;PMS_P2;Temp;Humidity;BMP_temperature;BMP_pressure;BME280_temperature;BME280_humidity;BME280_pressure;Samples;Min_cycle;Max_cycle;Signal;HPM_P1;HPM_P2
2022/10/18 06:09:59;;;;;;;;;;;;;;;18.49;69.13;98005.66;4225259;27;10341;-65
2022/10/18 06:12:02;;;;;;;;;;;;;;;18.78;68.36;98009.63;4217964;28;5815;-65
2022/10/18 06:14:07;;;;;;;;;;;;;;;19.02;68.11;97998.09;4231392;28;6325;-65
2022/10/18 06:16:12;;;;;;;;;;;;;;;19.19;67.38;97998.41;4231587;28;5605;-65
2022/10/18 06:18:15;;;;;;;;;;;;;;;19.34;67.37;98009.59;4231321;28;5706;-65
2022/10/18 06:20:18;;;;;;;;;;;;;;;19.46;67.15;98007.03;4225927;28;5796;-65
2022/10/18 06:22:21;;;;;;;;;;;;;;;19.56;66.46;98004.69;4224725;28;5790;-65
2022/10/18 06:24:25;;;;;;;;;;;;;;;19.64;66.56;98008.97;4226964;28;5528;-65
2022/10/18 06:26:29;;;;;;;;;;;;;;;19.72;66.58;97998.78;4227448;28;5068;-65
2022/10/18 06:28:34;;;;;;;;;;;;;;;19.80;66.26;98005.69;4230968;28;5804;-65
2022/10/18 06:30:37;;;;;;;;;;;;;;;19.87;65.89;98016.38;4222647;28;5662;-65
2022/10/18 06:32:40;;;;;;;;;;;;;;;19.91;66.03;98017.56;4221699;28;5620;-65
2022/10/18 06:34:43;;;;;;;;;;;;;;;19.97;65.80;98022.06;4217767;28;5766;-66
2022/10/18 06:36:46;;;;;;;;;;;;;;;19.99;65.71;98020.78;4229978;28;5786;-64
2022/10/18 06:38:49;;;;;;;;;;;;;;;20.02;65.50;98028.38;4231239;28;5673;-65
2022/10/18 06:40:52;;;;;;;;;;;;;;;20.08;65.54;98032.03;4231167;28;5722;-65
2022/10/18 06:42:57;;;;;;;;;;;;;;;20.10;65.61;98026.44;4223151;28;5617;-64
2022/10/18 06:45:13;;;;;;;;;;;;;;;20.12;65.15;98033.22;4231116;28;5118;-65
2022/10/18 06:47:15;;;;;;;;;;;;;;;20.16;65.31;98034.44;4217981;27;5643;-65
2022/10/18 06:49:19;;;;;;;;;;;;;;;20.19;65.03;98033.16;4226103;28;5711;-64
2022/10/18 06:51:21;;;;;;;;;;;;;;;20.22;64.99;98035.41;4231033;28;5617;-64
2022/10/18 06:53:25;;;;;;;;;;;;;;;20.23;65.23;98032.47;4228437;28;5706;-64
2022/10/18 06:55:28;;;;;;;;;;;;;;;20.26;65.22;98034.72;4231101;28;5726;-64
2022/10/18 06:57:31;;;;;;;;;;;;;;;20.28;65.14;98038.00;4230741;28;5787;-64
2022/10/18 06:59:35;;;;;;;;;;;;;;;20.31;64.83;98034.88;4228251;28;5608;-64
2022/10/18 07:01:38;;;;;;;;;;;;;;;20.33;64.90;98032.78;4229687;28;5801;-64
2022/10/18 07:03:42;;;;;;;;;;;;;;;20.34;65.14;98037.09;4224791;28;5810;-65
2022/10/18 07:05:45;;;;;;;;;;;;;;;20.36;64.87;98035.00;4230918;28;5621;-65
2022/10/18 07:07:48;;;;;;;;;;;;;;;20.38;64.56;98036.63;4229268;27;5831;-65
2022/10/18 07:09:58;;;;;;;;;;;;;;;20.40;64.75;98035.38;4220553;28;5629;-65
2022/10/18 07:12:00;;;;;;;;;;;;;;;20.43;64.91;98037.66;4219694;28;5602;-65
2022/10/18 07:14:04;;;;;;;;;;;;;;;20.44;64.39;98041.16;4219708;28;5605;-64
2022/10/18 07:16:10;;;;;;;;;;;;;;;20.41;64.38;98037.03;4219834;28;5772;-65
2022/10/18 07:18:19;;;;;;;;;;;;;;;20.42;64.13;98037.84;4219777;28;5629;-65
2022/10/18 07:20:22;;;;;;;;;;;;;;;20.38;64.56;98033.94;4219859;28;5612;-65
2022/10/18 07:22:24;;;;;;;;;;;;;;;20.40;64.09;98031.88;4219549;28;5609;-65
2022/10/18 07:24:31;;;;;;;;;;;;;;;20.44;64.12;98035.78;4219764;28;5620;-64
2022/10/18 07:26:41;;;;;;;;;;;;;;;20.43;64.27;98039.50;4219371;28;5868;-65
2022/10/18 07:28:45;;;;;;;;;;;;;;;20.48;63.73;98045.84;4219170;28;5601;-65
2022/10/18 07:30:48;;;;;;;;;;;;;;;20.48;63.82;98040.47;4219412;28;5714;-65
2022/10/18 07:32:53;;;;;;;;;;;;;;;20.51;63.71;98034.66;4219597;28;5730;-65
2022/10/18 07:34:57;;;;;;;;;;;;;;;20.50;63.62;98032.19;4219209;28;5805;-65
2022/10/18 07:37:02;;;;;;;;;;;;;;;20.50;63.29;98034.88;4218991;28;5616;-64
2022/10/18 07:39:05;;;;;;;;;;;;;;;20.49;63.21;98041.28;4201238;28;5623;-64
2022/10/18 07:41:11;;;;;;;;;;;;;;;20.46;63.49;98039.06;4218906;28;5609;-65
2022/10/18 07:43:14;;;;;;;;;;;;;;;20.47;63.32;98046.06;4218131;28;5116;-65
2022/10/18 07:45:17;;;;;;;;;;;;;;;20.44;63.31;98041.16;4201040;28;6317;-65
2022/10/18 07:47:22;;;;;;;;;;;;;;;20.44;63.15;98036.59;4219249;28;5616;-65
2022/10/18 07:49:26;;;;;;;;;;;;;;;20.46;62.65;98044.44;4218987;28;6295;-64
2022/10/18 07:51:31;;;;;;;;;;;;;;;20.47;62.67;98054.13;4219092;28;5777;-64
2022/10/18 07:53:34;;;;;;;;;;;;;;;20.49;62.60;98049.34;4218988;28;5641;-65
2022/10/18 07:55:37;;;;;;;;;;;;;;;20.48;62.76;98042.34;4218839;28;5620;-65
2022/10/18 07:57:40;;;;;;;;;;;;;;;20.49;62.53;98039.41;4219032;28;5620;-65
2022/10/18 07:59:45;;;;;;;;;;;;;;;20.49;62.36;98030.53;4218716;28;6994;-64
2022/10/18 08:01:48;;;;;;;;;;;;;;;20.50;62.20;98030.34;4218990;28;5620;-64
2022/10/18 08:03:52;;;;;;;;;;;;;;;20.53;62.12;98037.94;4218729;28;5797;-65
2022/10/18 08:05:56;;;;;;;;;;;;;;;20.57;61.75;98035.59;4218963;28;5777;-65
2022/10/18 08:07:59;;;;;;;;;;;;;;;20.60;61.71;98035.16;4218749;28;5680;-64
2022/10/18 08:10:07;;;;;;;;;;;;;;;20.63;61.65;98045.47;4216682;28;5621;-64
2022/10/18 08:12:10;;;;;;;;;;;;;;;20.64;61.70;98047.09;4202149;28;5897;-65
2022/10/18 08:14:14;;;;;;;;;;;;;;;20.65;61.40;98038.00;4201668;28;5647;-65
2022/10/18 08:16:19;;;;;;;;;;;;;;;20.67;61.29;98045.81;4192221;28;5707;-65
2022/10/18 08:18:22;;;;;;;;;;;;;;;20.69;61.35;98046.41;4202020;28;5627;-65
2022/10/18 08:20:25;;;;;;;;;;;;;;;20.70;61.10;98042.66;4214778;28;5620;-65
2022/10/18 08:22:34;;;;;;;;;;;;;;;20.70;60.84;98046.19;4217805;28;5725;-65
2022/10/18 08:24:37;;;;;;;;;;;;;;;20.71;61.35;98050.50;4218788;28;5715;-64
2022/10/18 08:26:39;;;;;;;;;;;;;;;20.72;61.01;98049.44;4218583;28;5624;-65
2022/10/18 08:28:43;;;;;;;;;;;;;;;20.74;61.07;98057.31;4203085;28;5158;-65
2022/10/18 08:31:03;;;;;;;;;;;;;;;20.74;60.89;98042.00;4210736;28;5743;-64
2022/10/18 08:33:06;;;;;;;;;;;;;;;20.77;60.93;98041.53;4218595;28;5624;-64
2022/10/18 08:35:09;;;;;;;;;;;;;;;20.78;60.68;98040.50;4218451;28;5735;-65
2022/10/18 08:37:12;;;;;;;;;;;;;;;20.80;60.84;98045.63;4209799;28;5811;-65
2022/10/18 08:39:16;;;;;;;;;;;;;;;20.80;60.80;98053.69;4215328;28;5763;-65
2022/10/18 08:41:52;;;;;;;;;;;;;;;20.80;60.61;98040.25;4213372;28;5665;-65
2022/10/18 08:44:05;;;;;;;;;;;;;;;20.81;60.83;98040.03;4186062;28;5552;-64
2022/10/18 08:46:12;;;;;;;;;;;;;;;20.82;60.78;98046.22;4218266;28;5695;-65
2022/10/18 08:48:21;;;;;;;;;;;;;;;20.83;60.79;98034.41;4218303;28;5711;-64
2022/10/18 08:50:29;;;;;;;;;;;;;;;20.82;60.68;98028.22;4218079;28;5609;-65
2022/10/18 08:52:37;;;;;;;;;;;;;;;20.84;60.23;98031.53;4218271;28;5612;-65
2022/10/18 08:54:54;;;;;;;;;;;;;;;20.83;60.28;98034.41;4202681;28;6421;-64
2022/10/18 08:57:00;;;;;;;;;;;;;;;20.83;60.29;98029.88;4201777;28;5627;-64
2022/10/18 08:59:03;;;;;;;;;;;;;;;20.84;60.20;98034.22;4207960;28;5632;-64
2022/10/18 09:01:22;;;;;;;;;;;;;;;20.82;59.99;98038.97;4200946;28;5746;-65
2022/10/18 09:03:36;;;;;;;;;;;;;;;20.84;60.28;98039.59;4209505;28;5760;-65
2022/10/18 09:05:48;;;;;;;;;;;;;;;20.84;59.90;98025.34;4201169;28;5714;-65
2022/10/18 09:08:10;;;;;;;;;;;;;;;20.85;60.07;98027.78;4201547;28;5623;-64
2022/10/18 09:10:25;;;;;;;;;;;;;;;20.85;59.62;98027.78;4200656;28;5634;-64
2022/10/18 09:12:49;;;;;;;;;;;;;;;20.88;59.87;98021.13;4201207;28;5636;-65
2022/10/18 09:15:12;;;;;;;;;;;;;;;20.89;59.58;98028.97;4200838;28;6566;-65
2022/10/18 09:17:28;;;;;;;;;;;;;;;20.90;59.42;98024.41;4201096;28;6441;-65
2022/10/18 09:19:46;;;;;;;;;;;;;;;20.92;59.29;98027.69;4201060;28;5746;-65
2022/10/18 09:21:52;;;;;;;;;;;;;;;20.93;58.77;98032.81;4201042;28;5654;-65
2022/10/18 09:24:04;;;;;;;;;;;;;;;20.90;58.84;98019.03;4200858;28;5632;-65
2022/10/18 09:26:14;;;;;;;;;;;;;;;20.91;58.83;98023.34;4200919;28;5838;-65
2022/10/18 09:28:29;;;;;;;;;;;;;;;20.92;58.97;98023.13;4200694;28;5986;-65
2022/10/18 09:30:41;;;;;;;;;;;;;;;20.94;59.03;98014.81;4200611;28;5801;-65
2022/10/18 09:32:48;;;;;;;;;;;;;;;20.94;58.53;98009.44;4200465;28;5755;-65
2022/10/18 09:34:55;;;;;;;;;;;;;;;21.01;58.70;98010.19;4200764;28;5648;-65
2022/10/18 09:36:59;;;;;;;;;;;;;;;21.05;58.44;98013.22;4200834;28;5631;-65
2022/10/18 09:39:04;;;;;;;;;;;;;;;21.09;58.71;98012.53;4200896;28;5652;-65
2022/10/18 09:41:13;;;;;;;;;;;;;;;21.12;58.31;98014.75;4200531;28;5724;-65
2022/10/18 09:43:21;;;;;;;;;;;;;;;21.15;58.46;98010.78;4200627;28;5807;-65
2022/10/18 09:45:28;;;;;;;;;;;;;;;21.16;58.53;98002.47;4200466;28;5731;-65
2022/10/18 09:47:36;;;;;;;;;;;;;;;21.18;58.00;98004.97;4200873;28;5755;-65
2022/10/18 09:49:44;;;;;;;;;;;;;;;21.20;58.25;98003.69;4200779;28;5732;-66
2022/10/18 09:51:50;;;;;;;;;;;;;;;21.22;58.25;97995.38;4200590;28;5706;-65
2022/10/18 09:54:17;;;;;;;;;;;;;;;21.22;58.32;98008.81;4166251;28;5794;-66
2022/10/18 09:56:26;;;;;;;;;;;;;;;21.24;58.04;98006.72;4187714;28;5822;-66
2022/10/18 09:58:43;;;;;;;;;;;;;;;21.28;58.08;98001.72;4200504;28;5628;-66
2022/10/18 10:00:49;;;;;;;;;;;;;;;21.27;57.87;98000.91;4200477;28;5636;-65
2022/10/18 10:02:52;;;;;;;;;;;;;;;21.29;57.95;97995.28;4200540;28;5759;-65
2022/10/18 10:04:55;;;;;;;;;;;;;;;21.30;58.10;97991.56;4200518;28;5728;-64
2022/10/18 10:07:01;;;;;;;;;;;;;;;21.31;57.89;97994.03;4200492;28;6494;-65
2022/10/18 10:09:07;;;;;;;;;;;;;;;21.33;58.00;97991.91;4209276;28;6041;-65
2022/10/18 10:11:31;;;;;;;;;;;;;;;21.37;57.53;97998.44;4217128;28;5704;-65
2022/10/18 10:13:34;;;;;;;;;;;;;;;21.41;57.68;97999.66;4217162;28;5626;-65
2022/10/18 10:15:37;;;;;;;;;;;;;;;21.44;57.81;97993.78;4202136;28;5631;-65
2022/10/18 10:17:44;;;;;;;;;;;;;;;21.46;57.42;97994.38;4207505;28;6117;-67
2022/10/18 10:19:58;;;;;;;;;;;;;;;21.49;57.43;97995.78;4217184;28;5608;-66
2022/10/18 10:22:05;;;;;;;;;;;;;;;21.49;57.50;97991.22;4217238;28;5825;-65
2022/10/18 10:24:23;;;;;;;;;;;;;;;21.50;57.64;97994.72;4215069;28;5653;-66
2022/10/18 10:26:36;;;;;;;;;;;;;;;21.51;57.40;97994.47;4200639;28;5639;-65
2022/10/18 10:28:45;;;;;;;;;;;;;;;21.52;57.16;97989.94;4206540;28;5688;-65
2022/10/18 10:30:48;;;;;;;;;;;;;;;21.54;56.85;97992.41;4216770;28;5230;-65
2022/10/18 10:32:53;;;;;;;;;;;;;;;21.55;56.95;97989.47;4217197;28;5675;-66
2022/10/18 10:34:56;;;;;;;;;;;;;;;21.56;56.65;97992.97;4201238;28;5640;-66
2022/10/18 10:36:59;;;;;;;;;;;;;;;21.56;57.00;97990.28;4207668;28;5636;-66
2022/10/18 10:39:04;;;;;;;;;;;;;;;21.59;56.89;97993.31;4201415;28;5631;-66
2022/10/18 10:41:19;;;;;;;;;;;;;;;21.60;56.48;97981.50;4215251;28;5604;-66
2022/10/18 10:43:26;;;;;;;;;;;;;;;21.64;56.59;97988.06;4200252;28;5620;-66
2022/10/18 10:45:57;;;;;;;;;;;;;;;21.67;56.36;97978.69;4217438;28;6301;-64
2022/10/18 10:48:07;;;;;;;;;;;;;;;21.67;56.17;97982.22;4186463;28;5745;-66
2022/10/18 10:50:12;;;;;;;;;;;;;;;21.68;56.43;97977.66;4191145;28;5658;-66
2022/10/18 10:52:18;;;;;;;;;;;;;;;21.71;56.17;97982.53;4201903;28;5635;-65
2022/10/18 10:54:34;;;;;;;;;;;;;;;21.70;56.46;97976.34;4220284;28;5605;-66
2022/10/18 10:56:56;;;;;;;;;;;;;;;21.73;56.17;97980.44;4220329;28;5613;-65
2022/10/18 10:59:09;;;;;;;;;;;;;;;21.73;55.81;97975.88;4218812;28;5628;-66
2022/10/18 11:01:33;;;;;;;;;;;;;;;21.75;56.16;97971.09;4195924;28;7773;-64
2022/10/18 11:03:36;;;;;;;;;;;;;;;21.77;56.16;97976.25;4205428;28;5628;-65
2022/10/18 11:05:45;;;;;;;;;;;;;;;21.78;56.02;97967.91;4211451;28;5613;-64
2022/10/18 11:07:52;;;;;;;;;;;;;;;21.79;55.78;97971.44;4203702;28;5616;-65
2022/10/18 11:10:01;;;;;;;;;;;;;;;21.79;55.30;97957.97;4219019;28;5737;-65
2022/10/18 11:12:14;;;;;;;;;;;;;;;21.78;55.22;97959.03;4219918;28;5613;-65
2022/10/18 11:14:25;;;;;;;;;;;;;;;21.80;55.46;97956.91;4219699;28;5710;-65
2022/10/18 11:16:33;;;;;;;;;;;;;;;21.79;55.03;97956.09;4219715;28;5604;-64
2022/10/18 11:18:37;;;;;;;;;;;;;;;21.80;55.28;97956.91;4219640;28;5773;-64
2022/10/18 11:20:43;;;;;;;;;;;;;;;21.79;55.38;97947.22;4219623;28;5721;-65
2022/10/18 11:22:59;;;;;;;;;;;;;;;21.78;55.24;97950.94;4219712;28;5797;-64
2022/10/18 11:25:03;;;;;;;;;;;;;;;21.81;55.21;97947.78;4219654;28;5762;-64
2022/10/18 11:27:13;;;;;;;;;;;;;;;21.81;54.93;97939.72;4219496;28;5075;-65
2022/10/18 11:29:35;;;;;;;;;;;;;;;21.80;55.07;97938.88;4218323;28;5624;-65
2022/10/18 11:31:45;;;;;;;;;;;;;;;21.82;54.76;97937.84;4213616;28;6519;-65
2022/10/18 11:34:07;;;;;;;;;;;;;;;21.80;54.43;97932.69;4212110;28;5637;-65
2022/10/18 11:36:18;;;;;;;;;;;;;;;21.81;54.34;97926.25;4212865;28;6004;-65
2022/10/18 11:38:43;;;;;;;;;;;;;;;21.81;54.23;97923.56;4218968;28;5601;-65
2022/10/18 11:40:57;;;;;;;;;;;;;;;21.82;54.48;97924.38;4210702;28;6294;-65
2022/10/18 11:43:08;;;;;;;;;;;;;;;21.83;54.47;97924.13;4218104;28;6290;-65
2022/10/18 11:45:29;;;;;;;;;;;;;;;21.83;54.34;97918.75;4218651;28;5628;-65
2022/10/18 11:47:47;;;;;;;;;;;;;;;21.86;54.33;97915.59;4218943;28;5661;-65
2022/10/18 11:50:11;;;;;;;;;;;;;;;21.91;53.71;97906.81;4218684;28;5793;-65
2022/10/18 11:52:23;;;;;;;;;;;;;;;21.93;54.16;97904.69;4212447;28;5624;-65
2022/10/18 11:54:52;;;;;;;;;;;;;;;21.95;54.06;97898.00;4218496;28;5891;-65
2022/10/18 11:57:12;;;;;;;;;;;;;;;21.96;53.68;97894.25;4218195;28;5805;-66
2022/10/18 11:59:27;;;;;;;;;;;;;;;21.99;53.64;97888.41;4217153;28;5794;-65
2022/10/18 12:01:38;;;;;;;;;;;;;;;22.02;53.66;97887.09;4217965;28;5641;-66
2022/10/18 12:03:54;;;;;;;;;;;;;;;22.02;53.56;97881.72;4218239;28;5621;-66
2022/10/18 12:06:03;;;;;;;;;;;;;;;22.02;53.82;97879.03;4205951;28;5771;-65
2022/10/18 12:08:09;;;;;;;;;;;;;;;22.02;53.18;97876.34;4218171;28;5623;-66
2022/10/18 12:10:17;;;;;;;;;;;;;;;22.03;53.68;97869.88;4218321;28;5855;-65
2022/10/18 12:12:46;;;;;;;;;;;;;;;22.00;53.30;97863.13;4218256;28;5612;-66
2022/10/18 12:14:52;;;;;;;;;;;;;;;22.01;53.46;97863.94;4218106;28;5887;-65
2022/10/18 12:17:02;;;;;;;;;;;;;;;22.00;53.37;97870.38;4201795;28;5643;-65
2022/10/18 12:19:29;;;;;;;;;;;;;;;22.01;53.02;97861.25;4215353;28;5609;-65
2022/10/18 12:21:34;;;;;;;;;;;;;;;22.00;52.97;97862.28;4217507;28;5805;-65
2022/10/18 12:23:43;;;;;;;;;;;;;;;21.98;52.84;97865.22;4209844;28;5624;-66
2022/10/18 12:25:53;;;;;;;;;;;;;;;21.97;52.97;97852.84;4212162;28;5762;-65
2022/10/18 12:28:00;;;;;;;;;;;;;;;21.96;52.99;97856.56;4215832;28;5625;-65
2022/10/18 12:30:11;;;;;;;;;;;;;;;21.97;52.85;97855.53;4218054;28;5725;-66
2022/10/18 12:32:18;;;;;;;;;;;;;;;21.98;52.76;97854.47;4215526;28;5680;-65
2022/10/18 12:34:30;;;;;;;;;;;;;;;21.98;52.71;97846.38;4218008;28;5714;-65
2022/10/18 12:36:53;;;;;;;;;;;;;;;22.00;53.03;97846.16;4218053;28;5726;-66
2022/10/18 12:39:00;;;;;;;;;;;;;;;21.99;53.11;97836.44;4209878;28;5829;-65
2022/10/18 12:41:04;;;;;;;;;;;;;;;22.00;52.85;97841.56;4217939;28;5711;-65
2022/10/18 12:43:09;;;;;;;;;;;;;;;22.02;53.01;97844.03;4217726;28;5636;-65
2022/10/18 12:45:34;;;;;;;;;;;;;;;22.03;52.81;97832.19;4213898;28;5784;-66
2022/10/18 12:47:39;;;;;;;;;;;;;;;22.02;53.15;97826.00;4208775;28;5616;-66
2022/10/18 12:49:42;;;;;;;;;;;;;;;22.02;52.70;97834.06;4217965;28;5785;-65
2022/10/18 12:51:51;;;;;;;;;;;;;;;21.98;53.12;97827.53;4217472;28;5699;-66
2022/10/18 12:54:10;;;;;;;;;;;;;;;22.00;52.76;97825.41;4217593;28;5625;-65
2022/10/18 12:56:35;;;;;;;;;;;;;;;22.02;52.88;97809.84;4217791;28;5722;-65
2022/10/18 12:58:38;;;;;;;;;;;;;;;22.03;52.69;97810.66;4217319;28;5621;-65
2022/10/18 13:00:56;;;;;;;;;;;;;;;22.03;52.80;97816.84;4217539;28;5108;-66
2022/10/18 13:03:37;;;;;;;;;;;;;;;22.04;53.17;97815.78;4209934;28;5805;-66
2022/10/18 13:05:55;;;;;;;;;;;;;;;22.04;52.83;97814.97;4209109;28;5617;-66
2022/10/18 13:08:22;;;;;;;;;;;;;;;22.04;53.10;97813.09;4209125;28;5730;-64
2022/10/18 13:10:37;;;;;;;;;;;;;;;22.06;53.26;97808.31;4200352;28;5799;-65
2022/10/18 13:12:57;;;;;;;;;;;;;;;22.06;52.98;97811.00;4198678;28;5726;-66
2022/10/18 13:15:07;;;;;;;;;;;;;;;22.07;53.20;97807.25;4200339;28;5751;-66
2022/10/18 13:17:36;;;;;;;;;;;;;;;22.08;52.96;97800.00;4200610;28;5627;-66
2022/10/18 13:19:57;;;;;;;;;;;;;;;22.08;53.13;97805.38;4200418;28;5624;-65
2022/10/18 13:22:35;;;;;;;;;;;;;;;22.08;53.31;97800.84;4187618;28;5917;-65
2022/10/18 13:24:44;;;;;;;;;;;;;;;22.09;52.68;97796.25;4192032;28;5641;-65
2022/10/18 13:27:00;;;;;;;;;;;;;;;22.08;53.06;97789.22;4200788;28;5727;-65
2022/10/18 13:29:45;;;;;;;;;;;;;;;22.13;52.83;97799.28;4200246;28;5747;-65
2022/10/18 13:31:56;;;;;;;;;;;;;;;22.16;52.70;97790.72;4200454;28;5790;-65
2022/10/18 13:34:23;;;;;;;;;;;;;;;22.18;52.94;97793.97;4192897;28;5639;-65
2022/10/18 13:36:32;;;;;;;;;;;;;;;22.19;53.04;97791.03;4200368;28;5799;-65
2022/10/18 13:38:47;;;;;;;;;;;;;;;22.21;52.79;97788.13;4200244;28;5628;-64
2022/10/18 13:41:00;;;;;;;;;;;;;;;22.22;52.31;97792.44;4200286;28;5806;-65
2022/10/18 13:43:38;;;;;;;;;;;;;;;22.20;52.75;97791.84;4184859;28;5658;-65
2022/10/18 13:45:55;;;;;;;;;;;;;;;22.23;52.78;97794.88;4196564;28;5878;-65
2022/10/18 13:48:36;;;;;;;;;;;;;;;22.24;52.53;97793.81;4198765;28;5631;-65
2022/10/18 13:50:43;;;;;;;;;;;;;;;22.27;52.70;97789.81;4195742;28;5636;-65
2022/10/18 13:53:04;;;;;;;;;;;;;;;22.26;52.37;97785.50;4198753;28;5619;-65
2022/10/18 13:55:29;;;;;;;;;;;;;;;22.29;52.48;97787.69;4199838;28;5635;-65
2022/10/18 13:57:45;;;;;;;;;;;;;;;22.29;52.64;97787.69;4199084;28;5735;-65
2022/10/18 14:00:29;;;;;;;;;;;;;;;22.28;52.62;97788.75;4199565;28;6427;-65
2022/10/18 14:03:00;;;;;;;;;;;;;;;22.27;52.23;97797.91;4191572;28;5631;-65
2022/10/18 14:05:14;;;;;;;;;;;;;;;22.24;52.46;97793.00;4199719;28;5635;-65
2022/10/18 14:07:28;;;;;;;;;;;;;;;22.23;52.45;97794.06;4196910;28;5866;-65
2022/10/18 14:09:48;;;;;;;;;;;;;;;22.23;52.36;97786.00;4189426;28;5694;-65
2022/10/18 14:12:01;;;;;;;;;;;;;;;22.23;52.29;97788.69;4194563;28;5750;-65
2022/10/18 14:14:13;;;;;;;;;;;;;;;22.23;52.57;97789.50;4199774;28;5686;-65
2022/10/18 14:16:40;;;;;;;;;;;;;;;22.22;52.22;97778.97;4196810;28;5694;-65
2022/10/18 14:18:47;;;;;;;;;;;;;;;22.23;52.26;97786.00;4195172;28;5833;-65
2022/10/18 14:20:54;;;;;;;;;;;;;;;22.22;52.48;97790.56;4200853;28;5713;-66
2022/10/18 14:23:18;;;;;;;;;;;;;;;22.22;52.04;97785.19;4197670;28;5705;-66
2022/10/18 14:25:28;;;;;;;;;;;;;;;22.20;52.54;97776.53;4202343;28;6395;-65
2022/10/18 14:27:32;;;;;;;;;;;;;;;22.20;52.45;97781.06;4201141;28;5707;-64
2022/10/18 14:29:35;;;;;;;;;;;;;;;22.20;52.03;97776.53;4200048;28;5690;-65
2022/10/18 14:31:38;;;;;;;;;;;;;;;22.19;52.31;97774.88;4199669;28;5690;-65
2022/10/18 14:33:44;;;;;;;;;;;;;;;22.20;52.03;97773.00;4200632;28;5777;-64
2022/10/18 14:35:59;;;;;;;;;;;;;;;22.18;52.29;97778.63;4200558;28;5836;-65
2022/10/18 14:38:02;;;;;;;;;;;;;;;22.19;51.94;97774.88;4195596;28;5494;-65
2022/10/18 14:40:06;;;;;;;;;;;;;;;22.19;52.48;97769.50;4201880;28;7859;-65
2022/10/18 14:42:20;;;;;;;;;;;;;;;22.18;52.48;97773.25;4196506;28;5715;-66
2022/10/18 14:44:26;;;;;;;;;;;;;;;22.17;51.89;97771.63;4197001;28;5702;-65
2022/10/18 14:46:32;;;;;;;;;;;;;;;22.18;52.45;97769.72;4201398;28;5923;-66
2022/10/18 14:48:35;;;;;;;;;;;;;;;22.18;52.23;97772.44;4195724;28;5769;-66
2022/10/18 14:50:38;;;;;;;;;;;;;;;22.14;52.14;97766.72;4197429;28;5814;-66
2022/10/18 14:52:41;;;;;;;;;;;;;;;22.17;52.44;97760.84;4202040;28;5838;-65
2022/10/18 14:54:44;;;;;;;;;;;;;;;22.17;52.21;97766.22;4189607;28;5704;-65
2022/10/18 14:56:47;;;;;;;;;;;;;;;22.17;52.05;97760.03;4201830;28;5792;-66
2022/10/18 14:58:53;;;;;;;;;;;;;;;22.17;52.05;97758.16;4192496;28;5731;-66
2022/10/18 15:00:56;;;;;;;;;;;;;;;22.18;52.23;97754.38;4192507;28;5785;-65
2022/10/18 15:03:00;;;;;;;;;;;;;;;22.18;52.23;97761.66;4200693;28;5686;-65
2022/10/18 15:05:08;;;;;;;;;;;;;;;22.18;52.38;97750.88;4193533;28;5773;-65
2022/10/18 15:07:16;;;;;;;;;;;;;;;22.18;51.91;97754.38;4200892;28;5781;-65
2022/10/18 15:09:23;;;;;;;;;;;;;;;22.19;51.88;97744.44;4202055;28;5703;-65
2022/10/18 15:11:28;;;;;;;;;;;;;;;22.21;52.02;97747.72;4215090;28;5621;-66
2022/10/18 15:13:32;;;;;;;;;;;;;;;22.20;51.96;97748.75;4213439;28;6211;-65
2022/10/18 15:15:37;;;;;;;;;;;;;;;22.19;51.87;97744.44;4215164;28;5625;-66
2022/10/18 15:17:41;;;;;;;;;;;;;;;22.20;52.36;97743.38;4221615;28;5609;-64
2022/10/18 15:19:55;;;;;;;;;;;;;;;22.20;51.82;97744.22;4213317;28;5707;-66
2022/10/18 15:22:01;;;;;;;;;;;;;;;22.20;52.22;97743.38;4216615;28;5707;-65
2022/10/18 15:24:34;;;;;;;;;;;;;;;22.21;52.23;97745.03;4216144;28;6502;-65
2022/10/18 15:26:43;;;;;;;;;;;;;;;22.20;52.09;97749.59;4213380;28;5826;-65
2022/10/18 15:28:51;;;;;;;;;;;;;;;22.21;52.22;97745.03;4209920;28;5703;-65
2022/10/18 15:30:57;;;;;;;;;;;;;;;22.21;52.23;97742.34;4211184;28;5215;-65
2022/10/18 15:33:03;;;;;;;;;;;;;;;22.20;52.34;97746.06;4217902;28;5853;-66
2022/10/18 15:35:08;;;;;;;;;;;;;;;22.20;52.33;97738.84;4207240;28;5731;-66
2022/10/18 15:37:28;;;;;;;;;;;;;;;22.18;51.82;97742.81;4206593;28;5719;-66
2022/10/18 15:39:32;;;;;;;;;;;;;;;22.19;52.39;97741.75;4213673;28;5092;-65
2022/10/18 15:41:41;;;;;;;;;;;;;;;22.17;52.05;97747.38;4211354;28;5695;-66
2022/10/18 15:43:44;;;;;;;;;;;;;;;22.17;52.20;97741.16;4207452;28;5707;-66
2022/10/18 15:45:47;;;;;;;;;;;;;;;22.15;51.75;97737.91;4219590;28;5625;-65
2022/10/18 15:48:01;;;;;;;;;;;;;;;22.13;51.94;97737.34;4217585;28;5696;-66
2022/10/18 15:50:05;;;;;;;;;;;;;;;22.13;51.70;97729.25;4212857;28;5628;-65
2022/10/18 15:52:33;;;;;;;;;;;;;;;22.11;51.85;97728.69;4215667;28;6346;-66
2022/10/18 15:54:40;;;;;;;;;;;;;;;22.10;51.83;97719.00;4206622;28;5782;-64
2022/10/18 15:56:44;;;;;;;;;;;;;;;22.09;52.21;97718.19;4218758;28;5836;-65
2022/10/18 15:58:48;;;;;;;;;;;;;;;22.07;52.07;97715.69;4198207;28;5687;-65
2022/10/18 16:00:53;;;;;;;;;;;;;;;22.06;52.11;97706.00;4215417;28;5605;-65
2022/10/18 16:02:55;;;;;;;;;;;;;;;22.07;52.27;97712.19;4213452;28;5641;-65
2022/10/18 16:05:01;;;;;;;;;;;;;;;22.04;52.05;97707.28;4217614;28;5889;-65
2022/10/18 16:07:05;;;;;;;;;;;;;;;22.05;52.26;97706.22;4195636;28;7179;-65
2022/10/18 16:09:15;;;;;;;;;;;;;;;22.03;51.80;97711.03;4209139;28;5934;-66
2022/10/18 16:11:20;;;;;;;;;;;;;;;22.02;51.99;97710.22;4209833;28;5585;-66
2022/10/18 16:13:22;;;;;;;;;;;;;;;22.00;52.29;97706.97;4209584;28;5625;-65
2022/10/18 16:15:25;;;;;;;;;;;;;;;21.99;51.99;97705.31;4211937;28;5592;-66
2022/10/18 16:17:28;;;;;;;;;;;;;;;21.97;52.20;97702.06;4209001;28;5707;-65
2022/10/18 16:19:32;;;;;;;;;;;;;;;21.96;52.26;97703.09;4205954;28;6564;-66
2022/10/18 16:21:38;;;;;;;;;;;;;;;21.95;52.23;97704.16;4205963;28;5766;-64
2022/10/18 16:23:41;;;;;;;;;;;;;;;21.93;52.23;97706.28;4206912;28;5693;-66
2022/10/18 16:25:44;;;;;;;;;;;;;;;21.91;52.41;97703.03;4210338;28;5636;-65
2022/10/18 16:27:46;;;;;;;;;;;;;;;21.84;52.20;97696.16;4205834;28;5789;-65
2022/10/18 16:29:49;;;;;;;;;;;;;;;21.89;52.55;97718.63;4207145;28;5839;-66
2022/10/18 16:31:56;;;;;;;;;;;;;;;21.87;52.55;97706.47;4209022;28;5726;-65
2022/10/18 16:34:00;;;;;;;;;;;;;;;21.85;52.37;97703.97;4208731;28;6326;-66
2022/10/18 16:36:04;;;;;;;;;;;;;;;21.83;52.83;97710.69;4202751;28;5643;-66
2022/10/18 16:38:20;;;;;;;;;;;;;;;21.79;52.43;97711.16;4207626;28;5700;-65
2022/10/18 16:40:26;;;;;;;;;;;;;;;21.77;52.78;97712.47;4202617;28;5639;-64
2022/10/18 16:42:28;;;;;;;;;;;;;;;21.76;52.98;97713.53;4207323;28;5693;-65
2022/10/18 16:44:32;;;;;;;;;;;;;;;21.75;52.79;97711.91;4198404;28;5637;-65
2022/10/18 16:46:36;;;;;;;;;;;;;;;21.73;52.69;97719.38;4204318;28;5627;-63
2022/10/18 16:48:38;;;;;;;;;;;;;;;21.72;52.92;97712.38;4202241;28;5639;-65
2022/10/18 16:50:42;;;;;;;;;;;;;;;21.70;53.09;97712.63;4208325;28;5612;-64
2022/10/18 16:52:45;;;;;;;;;;;;;;;21.68;53.12;97717.44;4206465;28;5609;-64
2022/10/18 16:54:49;;;;;;;;;;;;;;;21.67;52.64;97715.78;4224966;28;5751;-64
2022/10/18 16:56:52;;;;;;;;;;;;;;;21.66;53.13;97714.16;4217279;28;5608;-64
2022/10/18 16:58:54;;;;;;;;;;;;;;;21.64;53.15;97716.28;4216004;28;5692;-64
2022/10/18 17:00:58;;;;;;;;;;;;;;;21.63;53.14;97716.50;4202186;28;5722;-65
2022/10/18 17:03:06;;;;;;;;;;;;;;;21.61;53.18;97719.44;4211143;28;5628;-64
2022/10/18 17:05:09;;;;;;;;;;;;;;;21.62;52.80;97728.31;4216935;28;5719;-65
2022/10/18 17:07:22;;;;;;;;;;;;;;;21.60;52.70;97723.19;4214873;28;5702;-65
2022/10/18 17:09:24;;;;;;;;;;;;;;;21.60;53.05;97719.69;4216924;28;5533;-64
2022/10/18 17:11:29;;;;;;;;;;;;;;;21.59;52.71;97721.56;4216876;28;5613;-65
2022/10/18 17:13:32;;;;;;;;;;;;;;;21.59;52.59;97728.81;4217038;28;5619;-63
2022/10/18 17:15:35;;;;;;;;;;;;;;;21.58;52.99;97724.50;4216680;28;5601;-65
2022/10/18 17:17:38;;;;;;;;;;;;;;;21.57;53.03;97729.06;4217144;28;5667;-67
2022/10/18 17:19:41;;;;;;;;;;;;;;;21.56;52.90;97732.00;4215725;28;5608;-66
2022/10/18 17:21:44;;;;;;;;;;;;;;;21.56;52.57;97737.38;4216765;28;5625;-67
2022/10/18 17:23:47;;;;;;;;;;;;;;;21.55;53.08;97731.19;4216921;28;5524;-67
2022/10/18 17:25:50;;;;;;;;;;;;;;;21.54;52.39;97742.19;4209844;28;5718;-66
2022/10/18 17:28:16;;;;;;;;;;;;;;;21.54;52.45;97744.88;4210629;28;5779;-67
2022/10/18 17:30:19;;;;;;;;;;;;;;;21.51;52.76;97743.47;4216289;28;5703;-66
2022/10/18 17:32:22;;;;;;;;;;;;;;;21.49;52.73;97754.47;4215836;28;5680;-65